CES6375 ZYTL-ZBAA
Flight info
| Callsign | CES6375 |
|---|---|
| Flight time | 1h 8m |
| Altitude | 30100 |
| Route | ORA09D ORAVA W576 OVTUP W55 DUMAP DUMAP9Z |
| Aircraft | A320/M-SDE3FGHIRWY/LB1 |
Departure
| Time | 2026-05-06 12:05 |
|---|---|
| Airport | Dalian Zhoushuizi International Airport (ZYTL) |
Arrival
| Time | 2026-05-06 13:13 |
|---|---|
| Airport | Beijing Capital International Airport (ZBAA) |
| Time | Latitude | Longitude | Altitude | Speed | Heading |
|---|---|---|---|---|---|
| 2026-05-06 11:51 | 38.96220 | 121.54186 | 114 ft | 0 kts | 182° |
| 2026-05-06 11:56 | 38.96232 | 121.54187 | 113 ft | 2 kts | 182° |
| 2026-05-06 11:56 | 38.96249 | 121.54187 | 114 ft | 2 kts | 187° |
| 2026-05-06 11:56 | 38.96259 | 121.54191 | 114 ft | 0 kts | 225° |
| 2026-05-06 11:57 | 38.96267 | 121.54202 | 114 ft | 2 kts | 225° |
| 2026-05-06 11:57 | 38.96281 | 121.54212 | 113 ft | 2 kts | 187° |
| 2026-05-06 11:57 | 38.96298 | 121.54215 | 113 ft | 3 kts | 187° |
| 2026-05-06 11:57 | 38.96319 | 121.54218 | 114 ft | 3 kts | 186° |
| 2026-05-06 11:58 | 38.96339 | 121.54228 | 113 ft | 3 kts | 220° |
| 2026-05-06 11:58 | 38.96352 | 121.54249 | 115 ft | 3 kts | 263° |
| 2026-05-06 11:58 | 38.96353 | 121.54252 | 115 ft | 0 kts | 271° |
| 2026-05-06 12:01 | 38.96353 | 121.54251 | 116 ft | 1 kts | 271° |
| 2026-05-06 12:01 | 38.96355 | 121.54213 | 114 ft | 8 kts | 273° |
| 2026-05-06 12:01 | 38.96362 | 121.54108 | 116 ft | 15 kts | 275° |
| 2026-05-06 12:01 | 38.96375 | 121.53940 | 116 ft | 22 kts | 275° |
| 2026-05-06 12:02 | 38.96392 | 121.53712 | 116 ft | 29 kts | 275° |
| 2026-05-06 12:02 | 38.96413 | 121.53436 | 114 ft | 32 kts | 275° |
| 2026-05-06 12:02 | 38.96411 | 121.53181 | 114 ft | 31 kts | 269° |
| 2026-05-06 12:02 | 38.96431 | 121.52888 | 116 ft | 30 kts | 276° |
| 2026-05-06 12:03 | 38.96456 | 121.52600 | 114 ft | 35 kts | 277° |
| 2026-05-06 12:03 | 38.96484 | 121.52273 | 116 ft | 28 kts | 276° |
| 2026-05-06 12:03 | 38.96505 | 121.52002 | 116 ft | 34 kts | 276° |
| 2026-05-06 12:03 | 38.96578 | 121.51912 | 113 ft | 16 kts | 34° |
| 2026-05-06 12:04 | 38.96630 | 121.51957 | 116 ft | 13 kts | 31° |
| 2026-05-06 12:04 | 38.96691 | 121.52118 | 116 ft | 20 kts | 93° |
| 2026-05-06 12:04 | 38.96685 | 121.52213 | 114 ft | 0 kts | 95° |
| 2026-05-06 12:04 | 38.96685 | 121.52215 | 114 ft | 2 kts | 95° |
| 2026-05-06 12:05 | 38.96669 | 121.52431 | 114 ft | 59 kts | 95° |
| 2026-05-06 12:05 | 38.96607 | 121.53223 | 116 ft | 119 kts | 95° |
| 2026-05-06 12:05 | 38.96498 | 121.54486 | 207 ft | 157 kts | 97° |
| 2026-05-06 12:05 | 38.96388 | 121.55795 | 979 ft | 145 kts | 94° |
| 2026-05-06 12:06 | 38.96323 | 121.56686 | 1355 ft | 152 kts | 90° |
| 2026-05-06 12:06 | 38.96187 | 121.58635 | 1794 ft | 180 kts | 93° |
| 2026-05-06 12:06 | 38.96106 | 121.59759 | 1998 ft | 195 kts | 94° |
| 2026-05-06 12:06 | 38.95967 | 121.61601 | 2295 ft | 219 kts | 96° |
| 2026-05-06 12:07 | 38.95806 | 121.63657 | 2685 ft | 243 kts | 97° |
| 2026-05-06 12:07 | 38.95632 | 121.65861 | 3336 ft | 253 kts | 98° |
| 2026-05-06 12:07 | 38.95454 | 121.68132 | 4094 ft | 258 kts | 99° |
| 2026-05-06 12:07 | 38.95329 | 121.70463 | 4842 ft | 266 kts | 88° |
| 2026-05-06 12:08 | 38.95927 | 121.72693 | 5568 ft | 275 kts | 53° |
| 2026-05-06 12:08 | 38.97401 | 121.74213 | 6302 ft | 275 kts | 17° |
| 2026-05-06 12:08 | 38.99259 | 121.74664 | 7041 ft | 272 kts | 0° |
| 2026-05-06 12:08 | 39.01143 | 121.74700 | 7830 ft | 268 kts | 342° |
| 2026-05-06 12:09 | 39.02797 | 121.73769 | 8605 ft | 256 kts | 315° |
| 2026-05-06 12:09 | 39.03946 | 121.72043 | 9139 ft | 259 kts | 291° |
| 2026-05-06 12:09 | 39.04385 | 121.69803 | 9775 ft | 261 kts | 272° |
| 2026-05-06 12:09 | 39.04557 | 121.67438 | 10276 ft | 275 kts | 272° |
| 2026-05-06 12:10 | 39.04740 | 121.64887 | 10487 ft | 298 kts | 273° |
| 2026-05-06 12:10 | 39.04945 | 121.62117 | 10639 ft | 322 kts | 274° |
| 2026-05-06 12:10 | 39.05157 | 121.59156 | 10762 ft | 343 kts | 271° |
| 2026-05-06 12:10 | 39.04826 | 121.56074 | 11006 ft | 357 kts | 249° |
| 2026-05-06 12:11 | 39.03480 | 121.53372 | 11521 ft | 367 kts | 227° |
| 2026-05-06 12:11 | 39.01320 | 121.51556 | 12130 ft | 379 kts | 207° |
| 2026-05-06 12:11 | 38.98883 | 121.50215 | 12706 ft | 381 kts | 208° |
| 2026-05-06 12:11 | 38.96494 | 121.48727 | 13299 ft | 383 kts | 211° |
| 2026-05-06 12:12 | 38.94123 | 121.47142 | 13891 ft | 385 kts | 212° |
| 2026-05-06 12:12 | 38.91749 | 121.45521 | 14388 ft | 388 kts | 212° |
| 2026-05-06 12:12 | 38.89356 | 121.43899 | 14875 ft | 390 kts | 212° |
| 2026-05-06 12:12 | 38.86935 | 121.42288 | 15388 ft | 393 kts | 211° |
| 2026-05-06 12:13 | 38.84489 | 121.40696 | 15891 ft | 395 kts | 211° |
| 2026-05-06 12:13 | 38.82020 | 121.39124 | 16383 ft | 398 kts | 210° |
| 2026-05-06 12:13 | 38.79528 | 121.37554 | 16894 ft | 400 kts | 210° |
| 2026-05-06 12:13 | 38.77026 | 121.35973 | 17384 ft | 402 kts | 211° |
| 2026-05-06 12:14 | 38.74544 | 121.34401 | 17864 ft | 404 kts | 211° |
| 2026-05-06 12:14 | 38.72021 | 121.32799 | 18315 ft | 406 kts | 211° |
| 2026-05-06 12:14 | 38.69487 | 121.31184 | 18714 ft | 408 kts | 211° |
| 2026-05-06 12:14 | 38.66940 | 121.29561 | 19114 ft | 410 kts | 211° |
| 2026-05-06 12:15 | 38.64380 | 121.27931 | 19498 ft | 412 kts | 211° |
| 2026-05-06 12:15 | 38.61820 | 121.26264 | 19869 ft | 412 kts | 214° |
| 2026-05-06 12:15 | 38.59538 | 121.24088 | 20233 ft | 408 kts | 227° |
| 2026-05-06 12:15 | 38.57750 | 121.21285 | 20545 ft | 406 kts | 240° |
| 2026-05-06 12:16 | 38.56561 | 121.18022 | 20898 ft | 406 kts | 253° |
| 2026-05-06 12:16 | 38.56027 | 121.14476 | 21241 ft | 409 kts | 265° |
| 2026-05-06 12:16 | 38.56188 | 121.10841 | 21586 ft | 414 kts | 278° |
| 2026-05-06 12:16 | 38.56784 | 121.07229 | 21937 ft | 416 kts | 279° |
| 2026-05-06 12:17 | 38.57393 | 121.03606 | 22286 ft | 418 kts | 279° |
| 2026-05-06 12:17 | 38.57999 | 120.99973 | 22615 ft | 419 kts | 279° |
| 2026-05-06 12:17 | 38.58601 | 120.96323 | 22947 ft | 421 kts | 279° |
| 2026-05-06 12:17 | 38.59201 | 120.92657 | 23261 ft | 423 kts | 279° |
| 2026-05-06 12:18 | 38.59804 | 120.88966 | 23545 ft | 424 kts | 279° |
| 2026-05-06 12:18 | 38.60408 | 120.85271 | 23808 ft | 426 kts | 279° |
| 2026-05-06 12:18 | 38.61017 | 120.81560 | 24085 ft | 427 kts | 279° |
| 2026-05-06 12:18 | 38.61627 | 120.77852 | 24355 ft | 427 kts | 279° |
| 2026-05-06 12:19 | 38.62237 | 120.74121 | 24619 ft | 428 kts | 279° |
| 2026-05-06 12:19 | 38.62844 | 120.70388 | 24876 ft | 429 kts | 279° |
| 2026-05-06 12:19 | 38.63451 | 120.66662 | 25219 ft | 428 kts | 279° |
| 2026-05-06 12:19 | 38.64054 | 120.62944 | 25605 ft | 425 kts | 279° |
| 2026-05-06 12:20 | 38.64649 | 120.59252 | 26004 ft | 423 kts | 279° |
| 2026-05-06 12:20 | 38.65263 | 120.55581 | 26396 ft | 421 kts | 279° |
| 2026-05-06 12:20 | 38.65873 | 120.51928 | 26786 ft | 419 kts | 279° |
| 2026-05-06 12:20 | 38.66477 | 120.48290 | 27192 ft | 417 kts | 279° |
| 2026-05-06 12:21 | 38.67074 | 120.44670 | 27592 ft | 415 kts | 279° |
| 2026-05-06 12:21 | 38.67663 | 120.41067 | 28000 ft | 413 kts | 279° |
| 2026-05-06 12:21 | 38.68248 | 120.37480 | 28432 ft | 410 kts | 278° |
| 2026-05-06 12:21 | 38.68829 | 120.33918 | 28858 ft | 408 kts | 278° |
| 2026-05-06 12:22 | 38.69399 | 120.30419 | 29286 ft | 405 kts | 278° |
| 2026-05-06 12:22 | 38.69686 | 120.26818 | 29701 ft | 399 kts | 266° |
| 2026-05-06 12:22 | 38.69278 | 120.23323 | 29975 ft | 398 kts | 255° |
| 2026-05-06 12:22 | 38.68179 | 120.20059 | 29991 ft | 404 kts | 242° |
| 2026-05-06 12:23 | 38.66421 | 120.17214 | 30019 ft | 414 kts | 229° |
| 2026-05-06 12:23 | 38.64136 | 120.14985 | 30022 ft | 424 kts | 219° |
| 2026-05-06 12:23 | 38.59144 | 120.10952 | 30036 ft | 424 kts | 219° |
| 2026-05-06 12:24 | 38.54185 | 120.06940 | 30021 ft | 420 kts | 219° |
| 2026-05-06 12:24 | 38.49239 | 120.02925 | 30020 ft | 423 kts | 219° |
| 2026-05-06 12:25 | 38.44282 | 119.98848 | 30020 ft | 421 kts | 223° |
| 2026-05-06 12:25 | 38.40157 | 119.93737 | 30017 ft | 412 kts | 232° |
| 2026-05-06 12:26 | 38.36303 | 119.88326 | 29983 ft | 412 kts | 232° |
| 2026-05-06 12:26 | 38.32431 | 119.82923 | 29989 ft | 414 kts | 232° |
| 2026-05-06 12:27 | 38.28550 | 119.77503 | 30006 ft | 414 kts | 232° |
| 2026-05-06 12:27 | 38.24668 | 119.72088 | 30004 ft | 414 kts | 232° |
| 2026-05-06 12:28 | 38.20780 | 119.66676 | 29978 ft | 415 kts | 231° |
| 2026-05-06 12:28 | 38.16878 | 119.61254 | 29986 ft | 416 kts | 232° |
| 2026-05-06 12:29 | 38.13931 | 119.55074 | 29985 ft | 409 kts | 253° |
| 2026-05-06 12:29 | 38.13364 | 119.47982 | 30007 ft | 412 kts | 274° |
| 2026-05-06 12:30 | 38.14011 | 119.44427 | 30000 ft | 417 kts | 285° |
| 2026-05-06 12:30 | 38.15101 | 119.40995 | 29998 ft | 419 kts | 287° |
| 2026-05-06 12:30 | 38.17335 | 119.34151 | 29998 ft | 420 kts | 287° |
| 2026-05-06 12:31 | 38.19576 | 119.27294 | 29995 ft | 420 kts | 287° |
| 2026-05-06 12:31 | 38.21805 | 119.20419 | 30013 ft | 420 kts | 287° |
| 2026-05-06 12:32 | 38.24019 | 119.13538 | 30010 ft | 420 kts | 286° |
| 2026-05-06 12:32 | 38.26226 | 119.06659 | 30012 ft | 420 kts | 286° |
| 2026-05-06 12:33 | 38.28423 | 118.99824 | 30007 ft | 420 kts | 286° |
| 2026-05-06 12:33 | 38.30654 | 118.92895 | 30027 ft | 420 kts | 286° |
| 2026-05-06 12:34 | 38.32855 | 118.86024 | 30031 ft | 419 kts | 286° |
| 2026-05-06 12:34 | 38.35027 | 118.79203 | 30027 ft | 418 kts | 285° |
| 2026-05-06 12:35 | 38.37209 | 118.72342 | 30020 ft | 417 kts | 285° |
| 2026-05-06 12:35 | 38.39400 | 118.65492 | 30037 ft | 417 kts | 285° |
| 2026-05-06 12:36 | 38.41587 | 118.58658 | 30038 ft | 416 kts | 285° |
| 2026-05-06 12:36 | 38.43763 | 118.51830 | 30036 ft | 415 kts | 285° |
| 2026-05-06 12:37 | 38.45929 | 118.44998 | 29363 ft | 416 kts | 285° |
| 2026-05-06 12:37 | 38.47011 | 118.41559 | 28175 ft | 418 kts | 286° |
| 2026-05-06 12:37 | 38.48086 | 118.38159 | 27039 ft | 408 kts | 287° |
| 2026-05-06 12:38 | 38.49139 | 118.34845 | 25994 ft | 397 kts | 287° |
| 2026-05-06 12:38 | 38.50170 | 118.31576 | 24992 ft | 399 kts | 287° |
| 2026-05-06 12:38 | 38.51206 | 118.28275 | 24011 ft | 400 kts | 287° |
| 2026-05-06 12:38 | 38.52238 | 118.24990 | 22977 ft | 396 kts | 288° |
| 2026-05-06 12:39 | 38.53264 | 118.21719 | 21885 ft | 399 kts | 287° |
| 2026-05-06 12:39 | 38.54293 | 118.18428 | 21075 ft | 398 kts | 287° |
| 2026-05-06 12:39 | 38.55323 | 118.15144 | 20346 ft | 397 kts | 287° |
| 2026-05-06 12:39 | 38.56349 | 118.11879 | 19600 ft | 395 kts | 287° |
| 2026-05-06 12:40 | 38.57354 | 118.08665 | 18883 ft | 394 kts | 287° |
| 2026-05-06 12:40 | 38.58367 | 118.05408 | 18186 ft | 394 kts | 287° |
| 2026-05-06 12:40 | 38.59380 | 118.02164 | 17443 ft | 393 kts | 288° |
| 2026-05-06 12:40 | 38.60463 | 117.98898 | 17139 ft | 404 kts | 290° |
| 2026-05-06 12:41 | 38.61610 | 117.95607 | 16881 ft | 406 kts | 290° |
| 2026-05-06 12:41 | 38.62773 | 117.92345 | 16626 ft | 405 kts | 291° |
| 2026-05-06 12:41 | 38.63953 | 117.89072 | 16371 ft | 404 kts | 291° |
| 2026-05-06 12:41 | 38.65123 | 117.85810 | 16119 ft | 403 kts | 291° |
| 2026-05-06 12:42 | 38.66280 | 117.82552 | 15875 ft | 401 kts | 291° |
| 2026-05-06 12:42 | 38.67422 | 117.79302 | 15625 ft | 399 kts | 291° |
| 2026-05-06 12:42 | 38.68549 | 117.76065 | 15626 ft | 399 kts | 291° |
| 2026-05-06 12:42 | 38.69672 | 117.72820 | 15634 ft | 399 kts | 291° |
| 2026-05-06 12:43 | 38.70838 | 117.69596 | 15631 ft | 401 kts | 296° |
| 2026-05-06 12:43 | 38.72484 | 117.66683 | 15635 ft | 405 kts | 305° |
| 2026-05-06 12:43 | 38.74261 | 117.63876 | 15634 ft | 406 kts | 305° |
| 2026-05-06 12:43 | 38.76022 | 117.61105 | 15634 ft | 406 kts | 305° |
| 2026-05-06 12:44 | 38.77808 | 117.58301 | 15634 ft | 406 kts | 305° |
| 2026-05-06 12:44 | 38.79594 | 117.55501 | 15649 ft | 405 kts | 305° |
| 2026-05-06 12:44 | 38.81372 | 117.52716 | 15634 ft | 403 kts | 305° |
| 2026-05-06 12:44 | 38.83143 | 117.49938 | 15632 ft | 402 kts | 305° |
| 2026-05-06 12:45 | 38.84914 | 117.47152 | 15639 ft | 402 kts | 304° |
| 2026-05-06 12:45 | 38.86675 | 117.44378 | 15627 ft | 400 kts | 304° |
| 2026-05-06 12:45 | 38.90178 | 117.38840 | 15628 ft | 400 kts | 304° |
| 2026-05-06 12:46 | 38.91930 | 117.36064 | 15624 ft | 399 kts | 304° |
| 2026-05-06 12:46 | 38.93678 | 117.33292 | 15626 ft | 399 kts | 304° |
| 2026-05-06 12:46 | 38.95427 | 117.30519 | 15625 ft | 399 kts | 304° |
| 2026-05-06 12:46 | 38.97151 | 117.27781 | 15626 ft | 399 kts | 304° |
| 2026-05-06 12:47 | 38.98892 | 117.25012 | 15623 ft | 399 kts | 304° |
| 2026-05-06 12:47 | 39.00665 | 117.22265 | 15622 ft | 401 kts | 308° |
| 2026-05-06 12:47 | 39.02708 | 117.19786 | 15623 ft | 406 kts | 316° |
| 2026-05-06 12:47 | 39.05042 | 117.17696 | 15557 ft | 412 kts | 324° |
| 2026-05-06 12:48 | 39.07622 | 117.16068 | 15312 ft | 415 kts | 333° |
| 2026-05-06 12:48 | 39.10352 | 117.14851 | 15086 ft | 414 kts | 336° |
| 2026-05-06 12:48 | 39.13066 | 117.13666 | 14849 ft | 411 kts | 335° |
| 2026-05-06 12:48 | 39.15770 | 117.12468 | 14610 ft | 409 kts | 335° |
| 2026-05-06 12:49 | 39.18454 | 117.11269 | 14374 ft | 408 kts | 335° |
| 2026-05-06 12:49 | 39.21129 | 117.10073 | 14138 ft | 406 kts | 335° |
| 2026-05-06 12:49 | 39.23793 | 117.08882 | 13903 ft | 405 kts | 335° |
| 2026-05-06 12:49 | 39.26447 | 117.07695 | 13693 ft | 403 kts | 335° |
| 2026-05-06 12:50 | 39.29103 | 117.06507 | 13743 ft | 403 kts | 336° |
| 2026-05-06 12:50 | 39.31752 | 117.05324 | 13745 ft | 403 kts | 336° |
| 2026-05-06 12:50 | 39.34407 | 117.04142 | 13758 ft | 402 kts | 336° |
| 2026-05-06 12:50 | 39.37050 | 117.02965 | 13748 ft | 402 kts | 336° |
| 2026-05-06 12:51 | 39.39689 | 117.01786 | 13687 ft | 402 kts | 336° |
| 2026-05-06 12:51 | 39.42326 | 117.00608 | 13422 ft | 400 kts | 337° |
| 2026-05-06 12:51 | 39.44950 | 116.99438 | 13157 ft | 397 kts | 337° |
| 2026-05-06 12:51 | 39.47557 | 116.98274 | 12891 ft | 395 kts | 337° |
| 2026-05-06 12:52 | 39.50151 | 116.97111 | 12635 ft | 393 kts | 338° |
| 2026-05-06 12:52 | 39.52729 | 116.95951 | 12378 ft | 391 kts | 338° |
| 2026-05-06 12:52 | 39.55291 | 116.94796 | 12129 ft | 389 kts | 338° |
| 2026-05-06 12:52 | 39.57847 | 116.93645 | 11890 ft | 389 kts | 338° |
| 2026-05-06 12:53 | 39.60401 | 116.92518 | 11634 ft | 387 kts | 341° |
| 2026-05-06 12:53 | 39.63044 | 116.91806 | 11385 ft | 388 kts | 350° |
| 2026-05-06 12:53 | 39.65711 | 116.91407 | 11136 ft | 380 kts | 351° |
| 2026-05-06 12:53 | 39.67430 | 116.91152 | 10972 ft | 370 kts | 351° |
| 2026-05-06 12:54 | 39.69938 | 116.90781 | 10729 ft | 356 kts | 351° |
| 2026-05-06 12:54 | 39.73150 | 116.90299 | 10408 ft | 339 kts | 351° |
| 2026-05-06 12:54 | 39.74680 | 116.90067 | 10246 ft | 331 kts | 351° |
| 2026-05-06 12:54 | 39.77673 | 116.89611 | 9945 ft | 316 kts | 351° |
| 2026-05-06 12:55 | 39.79094 | 116.89395 | 9864 ft | 303 kts | 352° |
| 2026-05-06 12:55 | 39.81104 | 116.89093 | 9735 ft | 280 kts | 352° |
| 2026-05-06 12:55 | 39.83006 | 116.88807 | 9590 ft | 271 kts | 352° |
| 2026-05-06 12:55 | 39.84825 | 116.88530 | 9475 ft | 271 kts | 351° |
| 2026-05-06 12:56 | 39.86735 | 116.88237 | 9339 ft | 269 kts | 351° |
| 2026-05-06 12:56 | 39.88592 | 116.87955 | 9209 ft | 268 kts | 351° |
| 2026-05-06 12:56 | 39.90440 | 116.87671 | 9071 ft | 267 kts | 351° |
| 2026-05-06 12:56 | 39.92879 | 116.87296 | 8906 ft | 266 kts | 351° |
| 2026-05-06 12:57 | 39.94118 | 116.87107 | 8790 ft | 265 kts | 351° |
| 2026-05-06 12:57 | 39.95933 | 116.86832 | 8490 ft | 262 kts | 351° |
| 2026-05-06 12:57 | 39.97887 | 116.86529 | 8139 ft | 308 kts | 351° |
| 2026-05-06 12:57 | 40.00087 | 116.86189 | 7735 ft | 317 kts | 351° |
| 2026-05-06 12:58 | 40.02111 | 116.85492 | 7505 ft | 287 kts | 332° |
| 2026-05-06 12:58 | 40.03574 | 116.83913 | 7290 ft | 266 kts | 308° |
| 2026-05-06 12:58 | 40.04335 | 116.81758 | 6794 ft | 263 kts | 283° |
| 2026-05-06 12:58 | 40.04308 | 116.79384 | 6687 ft | 265 kts | 268° |
| 2026-05-06 12:59 | 40.03805 | 116.77076 | 6635 ft | 275 kts | 245° |
| 2026-05-06 12:59 | 40.02473 | 116.75192 | 6569 ft | 288 kts | 216° |
| 2026-05-06 12:59 | 40.00582 | 116.74389 | 6504 ft | 297 kts | 184° |
| 2026-05-06 12:59 | 39.98509 | 116.74817 | 6421 ft | 300 kts | 166° |
| 2026-05-06 13:00 | 39.96456 | 116.75341 | 6362 ft | 301 kts | 174° |
| 2026-05-06 13:00 | 39.94377 | 116.75637 | 6284 ft | 301 kts | 177° |
| 2026-05-06 13:00 | 39.92298 | 116.75854 | 6207 ft | 300 kts | 177° |
| 2026-05-06 13:00 | 39.90214 | 116.76071 | 6128 ft | 300 kts | 177° |
| 2026-05-06 13:01 | 39.88137 | 116.76313 | 6052 ft | 299 kts | 176° |
| 2026-05-06 13:01 | 39.86067 | 116.76586 | 5976 ft | 299 kts | 175° |
| 2026-05-06 13:01 | 39.84000 | 116.76882 | 5898 ft | 299 kts | 175° |
| 2026-05-06 13:01 | 39.81931 | 116.77191 | 5824 ft | 299 kts | 175° |
| 2026-05-06 13:02 | 39.79920 | 116.77497 | 5747 ft | 298 kts | 174° |
| 2026-05-06 13:02 | 39.77871 | 116.77812 | 5676 ft | 295 kts | 174° |
| 2026-05-06 13:02 | 39.75832 | 116.78127 | 5600 ft | 295 kts | 174° |
| 2026-05-06 13:02 | 39.73862 | 116.78434 | 5525 ft | 282 kts | 174° |
| 2026-05-06 13:03 | 39.71966 | 116.78727 | 5459 ft | 267 kts | 176° |
| 2026-05-06 13:03 | 39.70207 | 116.78465 | 5387 ft | 246 kts | 207° |
| 2026-05-06 13:03 | 39.68896 | 116.77215 | 5338 ft | 229 kts | 238° |
| 2026-05-06 13:03 | 39.68249 | 116.75409 | 5275 ft | 217 kts | 266° |
| 2026-05-06 13:04 | 39.68070 | 116.73467 | 5219 ft | 217 kts | 269° |
| 2026-05-06 13:04 | 39.67896 | 116.71521 | 5162 ft | 217 kts | 269° |
| 2026-05-06 13:04 | 39.67717 | 116.69576 | 5104 ft | 217 kts | 269° |
| 2026-05-06 13:04 | 39.67537 | 116.67633 | 5047 ft | 217 kts | 269° |
| 2026-05-06 13:05 | 39.67577 | 116.65724 | 4991 ft | 208 kts | 292° |
| 2026-05-06 13:05 | 39.68318 | 116.64169 | 4921 ft | 203 kts | 320° |
| 2026-05-06 13:05 | 39.69546 | 116.63334 | 4750 ft | 201 kts | 348° |
| 2026-05-06 13:05 | 39.70939 | 116.63105 | 4576 ft | 203 kts | 352° |
| 2026-05-06 13:06 | 39.72344 | 116.62895 | 4419 ft | 203 kts | 352° |
| 2026-05-06 13:06 | 39.73746 | 116.62681 | 4259 ft | 203 kts | 352° |
| 2026-05-06 13:06 | 39.75150 | 116.62466 | 4097 ft | 203 kts | 352° |
| 2026-05-06 13:06 | 39.76553 | 116.62250 | 3933 ft | 203 kts | 352° |
| 2026-05-06 13:07 | 39.77958 | 116.62033 | 3773 ft | 203 kts | 352° |
| 2026-05-06 13:07 | 39.79343 | 116.61820 | 3673 ft | 202 kts | 352° |
| 2026-05-06 13:07 | 39.80725 | 116.61608 | 3581 ft | 193 kts | 352° |
| 2026-05-06 13:07 | 39.82011 | 116.61410 | 3497 ft | 185 kts | 352° |
| 2026-05-06 13:08 | 39.83284 | 116.61214 | 3404 ft | 183 kts | 352° |
| 2026-05-06 13:08 | 39.84547 | 116.61016 | 3279 ft | 183 kts | 351° |
| 2026-05-06 13:08 | 39.85802 | 116.60818 | 3148 ft | 180 kts | 350° |
| 2026-05-06 13:08 | 39.87045 | 116.60622 | 3036 ft | 180 kts | 350° |
| 2026-05-06 13:09 | 39.88288 | 116.60423 | 2907 ft | 180 kts | 350° |
| 2026-05-06 13:09 | 39.89532 | 116.60225 | 2795 ft | 181 kts | 351° |
| 2026-05-06 13:09 | 39.90785 | 116.60027 | 2680 ft | 181 kts | 351° |
| 2026-05-06 13:09 | 39.92041 | 116.59829 | 2549 ft | 182 kts | 351° |
| 2026-05-06 13:10 | 39.93298 | 116.59632 | 2438 ft | 183 kts | 351° |
| 2026-05-06 13:10 | 39.94564 | 116.59433 | 2314 ft | 183 kts | 351° |
| 2026-05-06 13:10 | 39.95831 | 116.59233 | 2236 ft | 184 kts | 351° |
| 2026-05-06 13:11 | 39.98384 | 116.58832 | 1838 ft | 185 kts | 352° |
| 2026-05-06 13:11 | 39.99671 | 116.58629 | 1623 ft | 185 kts | 352° |
| 2026-05-06 13:11 | 40.00918 | 116.58433 | 1364 ft | 176 kts | 351° |
| 2026-05-06 13:11 | 40.02085 | 116.58250 | 1155 ft | 160 kts | 352° |
| 2026-05-06 13:12 | 40.03143 | 116.58083 | 926 ft | 146 kts | 352° |
| 2026-05-06 13:12 | 40.04115 | 116.57930 | 751 ft | 140 kts | 352° |
| 2026-05-06 13:12 | 40.05092 | 116.57775 | 576 ft | 140 kts | 353° |
| 2026-05-06 13:12 | 40.06046 | 116.57625 | 399 ft | 140 kts | 354° |
| 2026-05-06 13:13 | 40.07010 | 116.57470 | 239 ft | 140 kts | 355° |
| 2026-05-06 13:13 | 40.07959 | 116.57324 | 129 ft | 132 kts | 353° |
| 2026-05-06 13:13 | 40.08718 | 116.57225 | 120 ft | 85 kts | 353° |
| 2026-05-06 13:13 | 40.09134 | 116.57160 | 122 ft | 35 kts | 353° |
| 2026-05-06 13:14 | 40.09371 | 116.57123 | 121 ft | 34 kts | 354° |
| 2026-05-06 13:14 | 40.09568 | 116.57133 | 123 ft | 17 kts | 22° |
| 2026-05-06 13:14 | 40.09676 | 116.57198 | 122 ft | 17 kts | 41° |
| 2026-05-06 13:14 | 40.09635 | 116.57287 | 122 ft | 15 kts | 174° |
| 2026-05-06 13:15 | 40.09529 | 116.57299 | 122 ft | 16 kts | 173° |
| 2026-05-06 13:15 | 40.09411 | 116.57317 | 123 ft | 18 kts | 173° |
| 2026-05-06 13:15 | 40.09281 | 116.57343 | 122 ft | 20 kts | 171° |
| 2026-05-06 13:15 | 40.09138 | 116.57366 | 122 ft | 22 kts | 173° |
| 2026-05-06 13:16 | 40.08983 | 116.57390 | 125 ft | 23 kts | 173° |
| 2026-05-06 13:16 | 40.08818 | 116.57413 | 123 ft | 25 kts | 173° |
| 2026-05-06 13:16 | 40.08642 | 116.57440 | 120 ft | 26 kts | 172° |
| 2026-05-06 13:16 | 40.08459 | 116.57471 | 122 ft | 27 kts | 173° |
| 2026-05-06 13:17 | 40.08295 | 116.57515 | 123 ft | 15 kts | 128° |
| 2026-05-06 13:17 | 40.08301 | 116.57606 | 120 ft | 9 kts | 80° |
| 2026-05-06 13:17 | 40.08308 | 116.57680 | 123 ft | 8 kts | 83° |
| 2026-05-06 13:17 | 40.08314 | 116.57743 | 123 ft | 6 kts | 83° |
| 2026-05-06 13:18 | 40.08318 | 116.57794 | 124 ft | 5 kts | 83° |
| 2026-05-06 13:18 | 40.08313 | 116.57846 | 124 ft | 8 kts | 120° |
| 2026-05-06 13:18 | 40.08248 | 116.57878 | 123 ft | 13 kts | 176° |
| 2026-05-06 13:18 | 40.08176 | 116.57807 | 124 ft | 16 kts | 255° |
| 2026-05-06 13:19 | 40.08141 | 116.57744 | 122 ft | 6 kts | 194° |
| 2026-05-06 13:19 | 40.08106 | 116.57744 | 123 ft | 0 kts | 175° |
| 2026-05-06 13:20 | 40.08107 | 116.57744 | 123 ft | 0 kts | 175° |
| 2026-05-06 13:21 | 40.08106 | 116.57744 | 123 ft | 0 kts | 175° |